Time;durP1;ratioP1;P1;durP2;ratioP2;P2;SDS_P1;SDS_P2;PMS_P1;PMS_P2;Temp;Humidity;BMP_temperature;BMP_pressure;BME280_temperature;BME280_humidity;BME280_pressure;Samples;Min_cycle;Max_cycle;Signal;HPM_P1;HPM_P2
2021/12/22 00:00:51;;;;;;;35.45;26.35;;;;;;;;;;4988924;28;100157;-71
2021/12/22 00:03:18;;;;;;;42.65;25.60;;;;;;;;;;4992929;28;99551;-69
2021/12/22 00:05:45;;;;;;;41.97;28.15;;;;;;;;;;4986029;28;98763;-69
2021/12/22 00:08:13;;;;;;;32.70;23.63;;;;;;;;;;4987616;28;99487;-69
2021/12/22 00:10:41;;;;;;;34.63;25.15;;;;;;;;;;4991981;28;100557;-69
2021/12/22 00:13:07;;;;;;;41.85;25.08;;;;;;;;;;4987496;28;98539;-69
2021/12/22 00:15:34;;;;;;;46.63;26.45;;;;;;;;;;4991023;28;99449;-70
2021/12/22 00:18:00;;;;;;;37.40;23.92;;;;;;;;;;4989217;28;100279;-70
2021/12/22 00:20:26;;;;;;;37.83;23.98;;;;;;;;;;4994548;28;99178;-70
2021/12/22 00:22:57;;;;;;;41.88;23.40;;;;;;;;;;4986173;28;99485;-70
2021/12/22 00:25:25;;;;;;;32.22;22.67;;;;;;;;;;4991245;28;99099;-69
2021/12/22 00:27:53;;;;;;;39.20;23.50;;;;;;;;;;4986999;28;101642;-69
2021/12/22 00:30:20;;;;;;;33.40;22.50;;;;;;;;;;4992548;28;99606;-70
2021/12/22 00:32:52;;;;;;;34.78;21.63;;;;;;;;;;4986982;28;97762;-71
2021/12/22 00:35:20;;;;;;;29.80;19.70;;;;;;;;;;4991872;28;98700;-68
2021/12/22 00:37:47;;;;;;;31.85;20.83;;;;;;;;;;4987051;28;99110;-69
2021/12/22 00:40:13;;;;;;;29.33;21.83;;;;;;;;;;4992236;28;99376;-69
2021/12/22 00:42:40;;;;;;;34.65;22.08;;;;;;;;;;4993677;28;99942;-69
2021/12/22 00:45:06;;;;;;;29.55;21.88;;;;;;;;;;4991193;28;98534;-69
2021/12/22 00:47:33;;;;;;;28.75;21.50;;;;;;;;;;4986688;28;100099;-68
2021/12/22 00:49:59;;;;;;;26.02;20.55;;;;;;;;;;4990278;28;100379;-69
2021/12/22 00:52:26;;;;;;;33.83;23.02;;;;;;;;;;4988194;28;100641;-70
2021/12/22 00:54:52;;;;;;;29.00;22.23;;;;;;;;;;4991051;28;99298;-69
2021/12/22 00:57:19;;;;;;;33.60;22.02;;;;;;;;;;4985946;28;99835;-69
2021/12/22 00:59:46;;;;;;;36.38;23.88;;;;;;;;;;4989634;28;100415;-69
2021/12/22 01:02:14;;;;;;;33.28;23.20;;;;;;;;;;4979436;28;100198;-69
2021/12/22 01:04:41;;;;;;;35.25;25.02;;;;;;;;;;4988155;28;101043;-69
2021/12/22 01:07:07;;;;;;;38.05;24.08;;;;;;;;;;4985329;28;100627;-69
2021/12/22 01:09:34;;;;;;;34.03;24.52;;;;;;;;;;4986030;28;99842;-68
2021/12/22 01:12:01;;;;;;;35.38;23.63;;;;;;;;;;4984340;28;99233;-69
2021/12/22 01:14:27;;;;;;;33.97;24.98;;;;;;;;;;4988287;28;99155;-69
2021/12/22 01:16:59;;;;;;;39.58;25.15;;;;;;;;;;4985093;28;99326;-69
2021/12/22 01:19:34;;;;;;;35.40;24.30;;;;;;;;;;4979294;28;99004;-69
2021/12/22 01:22:19;;;;;;;30.08;23.95;;;;;;;;;;4988489;28;101381;-69
2021/12/22 01:24:48;;;;;;;35.83;25.90;;;;;;;;;;4987785;28;101114;-69
2021/12/22 01:27:21;;;;;;;37.20;24.30;;;;;;;;;;4991816;28;100204;-70
2021/12/22 01:29:47;;;;;;;33.95;22.42;;;;;;;;;;4990306;28;100905;-70
2021/12/22 01:32:16;;;;;;;32.53;24.23;;;;;;;;;;4988737;28;99366;-69
2021/12/22 01:34:42;;;;;;;35.45;24.13;;;;;;;;;;4991010;28;100467;-70
2021/12/22 01:37:08;;;;;;;44.35;23.83;;;;;;;;;;4981735;28;100921;-70
2021/12/22 01:39:35;;;;;;;33.90;21.92;;;;;;;;;;4989086;28;98605;-69
2021/12/22 01:42:01;;;;;;;38.00;23.35;;;;;;;;;;4989335;28;100107;-69
2021/12/22 01:44:32;;;;;;;34.47;21.05;;;;;;;;;;4989283;28;103012;-70
2021/12/22 01:49:50;;;;;;;34.80;23.55;;;;;;;;;;4994156;28;99881;-68
2021/12/22 01:52:20;;;;;;;35.60;24.42;;;;;;;;;;4988835;28;98563;-69
2021/12/22 01:55:03;;;;;;;33.42;22.50;;;;;;;;;;4989233;28;100577;-68
2021/12/22 01:57:30;;;;;;;29.92;22.15;;;;;;;;;;4988456;28;100835;-68
2021/12/22 01:59:57;;;;;;;33.83;23.63;;;;;;;;;;4988830;28;98625;-68
2021/12/22 02:02:23;;;;;;;34.97;22.63;;;;;;;;;;4988823;28;99306;-68
2021/12/22 02:04:49;;;;;;;42.55;22.63;;;;;;;;;;4990224;28;100076;-69
2021/12/22 02:07:16;;;;;;;41.63;22.05;;;;;;;;;;4988732;27;98631;-69
2021/12/22 02:12:10;;;;;;;31.63;21.67;;;;;;;;;;4989434;28;97858;-69
2021/12/22 02:14:37;;;;;;;32.90;22.45;;;;;;;;;;4989450;28;98569;-70
2021/12/22 02:17:07;;;;;;;42.63;21.90;;;;;;;;;;4988383;28;100728;-69
2021/12/22 02:19:37;;;;;;;36.45;23.30;;;;;;;;;;4987636;28;100525;-69
2021/12/22 02:22:08;;;;;;;28.63;21.52;;;;;;;;;;4988057;28;100163;-69
2021/12/22 02:24:35;;;;;;;40.45;22.92;;;;;;;;;;4989116;28;100325;-69
2021/12/22 02:27:07;;;;;;;34.90;22.88;;;;;;;;;;4994800;28;98589;-69
2021/12/22 02:29:36;;;;;;;32.42;23.10;;;;;;;;;;4987167;28;99349;-69
2021/12/22 02:32:12;;;;;;;31.23;22.27;;;;;;;;;;4992469;28;100482;-69
2021/12/22 02:34:44;;;;;;;34.65;23.10;;;;;;;;;;4989970;28;100792;-69
2021/12/22 02:37:14;;;;;;;36.70;22.73;;;;;;;;;;4989054;28;99298;-69
2021/12/22 02:39:47;;;;;;;41.22;23.52;;;;;;;;;;4987361;28;98659;-68
2021/12/22 02:42:14;;;;;;;37.53;22.00;;;;;;;;;;4988011;28;101323;-68
2021/12/22 02:44:40;;;;;;;44.08;23.50;;;;;;;;;;4987131;28;100925;-68
2021/12/22 02:47:17;;;;;;;38.45;22.90;;;;;;;;;;4988443;28;98769;-68
2021/12/22 02:49:43;;;;;;;31.85;22.30;;;;;;;;;;4993270;28;100216;-69
2021/12/22 02:52:09;;;;;;;40.00;22.20;;;;;;;;;;4987901;28;100264;-69
2021/12/22 02:54:42;;;;;;;42.55;24.30;;;;;;;;;;4991231;28;99318;-69
2021/12/22 02:57:22;;;;;;;38.35;22.35;;;;;;;;;;4988213;28;99453;-69
2021/12/22 03:05:33;;;;;;;32.33;20.45;;;;;;;;;;4974140;28;99669;-69
2021/12/22 03:08:00;;;;;;;29.13;20.38;;;;;;;;;;4987172;28;99001;-69
2021/12/22 03:10:26;;;;;;;33.45;22.02;;;;;;;;;;4987035;28;100850;-69
2021/12/22 03:12:55;;;;;;;38.28;22.52;;;;;;;;;;4993659;28;100988;-69
2021/12/22 03:15:22;;;;;;;33.63;21.98;;;;;;;;;;4990971;28;98745;-69
2021/12/22 03:17:49;;;;;;;31.23;21.58;;;;;;;;;;4997061;28;100286;-69
2021/12/22 03:20:15;;;;;;;38.40;21.63;;;;;;;;;;4989115;28;100617;-69
2021/12/22 03:22:44;;;;;;;37.15;23.05;;;;;;;;;;4992643;28;99349;-70
2021/12/22 03:25:16;;;;;;;41.80;21.92;;;;;;;;;;4987138;28;100135;-69
2021/12/22 03:27:44;;;;;;;45.63;23.63;;;;;;;;;;4992751;28;98049;-69
2021/12/22 03:30:11;;;;;;;34.70;21.35;;;;;;;;;;4988171;28;99180;-69
2021/12/22 03:32:38;;;;;;;44.35;24.55;;;;;;;;;;4989477;28;100586;-69
2021/12/22 03:35:04;;;;;;;43.17;23.73;;;;;;;;;;4989146;28;100046;-69
2021/12/22 03:37:31;;;;;;;45.92;24.00;;;;;;;;;;4987409;28;99924;-69
2021/12/22 03:39:57;;;;;;;37.28;22.85;;;;;;;;;;4996825;27;99381;-69
2021/12/22 03:42:24;;;;;;;40.33;24.50;;;;;;;;;;4991200;28;100429;-70
2021/12/22 03:44:50;;;;;;;38.65;25.00;;;;;;;;;;4990065;28;100341;-69
2021/12/22 03:47:16;;;;;;;39.67;22.33;;;;;;;;;;4987788;28;98614;-69
2021/12/22 03:49:43;;;;;;;39.63;24.33;;;;;;;;;;4987043;28;99732;-69
2021/12/22 03:52:09;;;;;;;40.60;23.08;;;;;;;;;;4986762;28;99913;-69
2021/12/22 03:54:36;;;;;;;40.35;23.15;;;;;;;;;;4981965;28;98636;-69
2021/12/22 03:57:02;;;;;;;41.78;23.98;;;;;;;;;;4987488;28;100137;-69
2021/12/22 03:59:28;;;;;;;42.55;24.40;;;;;;;;;;4986256;28;101096;-69
2021/12/22 04:01:55;;;;;;;36.80;22.85;;;;;;;;;;4995767;28;98683;-69
2021/12/22 04:04:22;;;;;;;38.15;22.48;;;;;;;;;;4988072;28;100606;-69
2021/12/22 04:06:50;;;;;;;37.10;23.63;;;;;;;;;;4986541;28;98850;-69
2021/12/22 04:09:17;;;;;;;29.80;22.02;;;;;;;;;;4989413;28;99237;-69
2021/12/22 04:11:44;;;;;;;45.63;23.40;;;;;;;;;;4978399;28;99598;-69
2021/12/22 04:14:10;;;;;;;38.60;22.65;;;;;;;;;;4987464;28;98812;-70
2021/12/22 04:16:37;;;;;;;35.00;21.67;;;;;;;;;;4988044;28;99299;-69
2021/12/22 04:19:04;;;;;;;35.47;21.95;;;;;;;;;;4987536;28;100289;-69
2021/12/22 04:21:30;;;;;;;44.10;23.13;;;;;;;;;;4990346;28;99096;-69
2021/12/22 04:23:57;;;;;;;42.88;23.27;;;;;;;;;;4984213;28;101637;-70
2021/12/22 04:26:24;;;;;;;36.42;21.77;;;;;;;;;;4989293;28;98718;-69
2021/12/22 04:28:50;;;;;;;36.20;21.38;;;;;;;;;;4985824;28;99481;-69
2021/12/22 04:31:16;;;;;;;37.08;23.38;;;;;;;;;;4989803;28;100736;-70
2021/12/22 04:33:43;;;;;;;33.83;21.58;;;;;;;;;;4987462;28;100164;-69
2021/12/22 04:36:09;;;;;;;38.42;21.02;;;;;;;;;;4990463;28;99832;-69
2021/12/22 04:38:35;;;;;;;29.65;20.65;;;;;;;;;;4986284;28;100158;-69
2021/12/22 04:41:02;;;;;;;33.08;21.20;;;;;;;;;;4989116;28;99444;-69
2021/12/22 04:43:28;;;;;;;41.13;21.02;;;;;;;;;;4989686;28;100116;-69
2021/12/22 04:45:55;;;;;;;41.47;21.17;;;;;;;;;;4990633;28;98605;-69
2021/12/22 04:48:21;;;;;;;38.55;22.00;;;;;;;;;;4991114;28;99811;-69
2021/12/22 04:50:47;;;;;;;37.30;21.27;;;;;;;;;;4992201;28;99957;-69
2021/12/22 04:53:22;;;;;;;37.97;21.73;;;;;;;;;;4993995;28;100269;-69
2021/12/22 04:55:49;;;;;;;39.28;21.88;;;;;;;;;;4997269;28;100651;-69
2021/12/22 04:58:15;;;;;;;32.95;20.80;;;;;;;;;;4990533;28;102550;-69
2021/12/22 05:00:42;;;;;;;38.95;20.95;;;;;;;;;;4995645;28;100410;-69
2021/12/22 05:03:08;;;;;;;28.17;19.55;;;;;;;;;;4982081;28;101397;-70
2021/12/22 05:05:35;;;;;;;34.25;21.27;;;;;;;;;;4997944;28;99853;-69
2021/12/22 05:08:01;;;;;;;41.53;21.35;;;;;;;;;;4990016;28;99416;-69
2021/12/22 05:10:28;;;;;;;30.20;19.77;;;;;;;;;;4994334;28;100164;-69
2021/12/22 05:12:54;;;;;;;31.98;20.77;;;;;;;;;;4989346;28;99851;-69
2021/12/22 05:15:23;;;;;;;35.63;21.20;;;;;;;;;;4992421;28;100783;-69
2021/12/22 05:18:13;;;;;;;41.95;21.05;;;;;;;;;;4988887;28;100591;-69
2021/12/22 05:20:36;;;;;;;34.50;22.30;;;;;;;;;;4983681;28;98653;-70
2021/12/22 05:23:03;;;;;;;32.58;21.73;;;;;;;;;;4989390;28;100336;-70
2021/12/22 05:25:29;;;;;;;40.97;22.13;;;;;;;;;;4993385;28;100157;-70
2021/12/22 05:27:55;;;;;;;31.92;20.60;;;;;;;;;;4993120;28;98638;-70
2021/12/22 05:30:22;;;;;;;33.80;21.35;;;;;;;;;;4994802;28;102270;-70
2021/12/22 05:32:53;;;;;;;32.60;22.15;;;;;;;;;;4989417;28;98948;-70
2021/12/22 05:35:20;;;;;;;46.92;21.27;;;;;;;;;;4995302;28;100306;-69
2021/12/22 05:37:47;;;;;;;35.13;21.17;;;;;;;;;;4987401;28;101484;-69
2021/12/22 05:40:13;;;;;;;36.53;20.80;;;;;;;;;;4995458;28;98635;-69
2021/12/22 05:42:39;;;;;;;40.25;23.58;;;;;;;;;;4989390;28;99196;-69
2021/12/22 05:45:06;;;;;;;46.67;23.65;;;;;;;;;;4988337;28;99531;-70
2021/12/22 05:47:32;;;;;;;39.30;23.50;;;;;;;;;;4988952;28;98657;-69
2021/12/22 05:49:59;;;;;;;36.28;22.65;;;;;;;;;;4991881;28;99766;-70
2021/12/22 05:52:25;;;;;;;32.83;22.05;;;;;;;;;;4988084;28;98626;-69
2021/12/22 05:54:51;;;;;;;35.25;22.08;;;;;;;;;;4990177;28;100520;-69
2021/12/22 05:57:18;;;;;;;43.25;22.50;;;;;;;;;;4988205;28;100121;-69
2021/12/22 05:59:44;;;;;;;38.53;21.65;;;;;;;;;;4987684;28;99894;-70
2021/12/22 06:02:11;;;;;;;44.03;21.73;;;;;;;;;;4988736;28;100577;-70
2021/12/22 06:04:37;;;;;;;34.55;21.17;;;;;;;;;;4987370;28;99594;-70
2021/12/22 06:07:03;;;;;;;39.00;22.23;;;;;;;;;;4988566;28;98645;-71
2021/12/22 06:09:30;;;;;;;34.20;21.52;;;;;;;;;;4997937;28;99249;-69
2021/12/22 06:11:56;;;;;;;34.70;20.40;;;;;;;;;;4988539;28;98540;-69
2021/12/22 06:14:23;;;;;;;33.03;20.33;;;;;;;;;;4994301;28;100510;-69
2021/12/22 06:16:49;;;;;;;33.45;19.95;;;;;;;;;;4988846;28;100609;-69
2021/12/22 06:19:15;;;;;;;40.05;19.90;;;;;;;;;;4992830;28;99349;-69
2021/12/22 06:21:42;;;;;;;36.88;19.45;;;;;;;;;;4992219;28;99094;-69
2021/12/22 06:24:08;;;;;;;32.20;19.63;;;;;;;;;;4988658;28;99293;-69
2021/12/22 06:26:35;;;;;;;32.92;19.73;;;;;;;;;;4988065;28;99463;-69
2021/12/22 06:29:01;;;;;;;26.42;19.10;;;;;;;;;;4988887;28;101065;-69
2021/12/22 06:31:28;;;;;;;34.15;20.10;;;;;;;;;;4991623;28;100764;-69
2021/12/22 06:33:54;;;;;;;35.58;19.55;;;;;;;;;;4988922;28;99990;-69
2021/12/22 06:36:20;;;;;;;35.95;19.20;;;;;;;;;;4988696;28;99688;-69
2021/12/22 06:38:49;;;;;;;41.42;19.27;;;;;;;;;;4988835;27;99909;-69
2021/12/22 06:41:16;;;;;;;38.47;21.23;;;;;;;;;;4993027;28;100384;-69
2021/12/22 06:43:42;;;;;;;42.70;20.13;;;;;;;;;;4988788;28;100988;-69
2021/12/22 06:46:09;;;;;;;36.05;20.65;;;;;;;;;;4988921;28;98601;-69
2021/12/22 06:48:36;;;;;;;32.60;20.75;;;;;;;;;;4993857;28;99857;-69
2021/12/22 06:51:02;;;;;;;35.42;20.10;;;;;;;;;;4993683;28;103633;-69
2021/12/22 06:53:34;;;;;;;38.50;20.95;;;;;;;;;;4997907;28;99007;-69
2021/12/22 06:56:00;;;;;;;40.20;20.17;;;;;;;;;;4988182;28;99373;-70
2021/12/22 06:58:27;;;;;;;34.25;19.75;;;;;;;;;;4986996;28;98595;-69
2021/12/22 07:00:56;;;;;;;36.03;19.73;;;;;;;;;;4987943;28;99449;-69
2021/12/22 07:03:22;;;;;;;40.35;21.35;;;;;;;;;;4992855;28;100517;-69
2021/12/22 07:05:49;;;;;;;31.63;19.40;;;;;;;;;;4988050;28;100195;-69
2021/12/22 07:08:15;;;;;;;34.33;20.73;;;;;;;;;;4995425;28;99354;-69
2021/12/22 07:10:41;;;;;;;38.03;20.48;;;;;;;;;;5006805;28;100240;-69
2021/12/22 07:13:09;;;;;;;32.60;19.80;;;;;;;;;;5002626;28;98953;-69
2021/12/22 07:15:35;;;;;;;36.35;19.80;;;;;;;;;;4991548;28;100386;-69
2021/12/22 07:18:02;;;;;;;47.63;21.33;;;;;;;;;;4989091;28;98602;-69
2021/12/22 07:20:29;;;;;;;28.67;18.33;;;;;;;;;;4987050;28;100400;-69
2021/12/22 07:22:55;;;;;;;31.67;20.25;;;;;;;;;;4988112;28;99768;-69
2021/12/22 07:25:24;;;;;;;34.92;19.63;;;;;;;;;;4984943;28;98626;-69
2021/12/22 07:27:51;;;;;;;30.60;20.17;;;;;;;;;;4988280;28;99383;-69
2021/12/22 07:30:17;;;;;;;33.50;19.13;;;;;;;;;;4992996;28;100602;-70
2021/12/22 07:32:44;;;;;;;35.97;19.45;;;;;;;;;;4989247;28;97795;-69
2021/12/22 07:35:14;;;;;;;37.65;19.30;;;;;;;;;;4991766;28;99462;-69
2021/12/22 07:37:42;;;;;;;35.63;19.35;;;;;;;;;;4994418;28;99276;-69
2021/12/22 07:40:13;;;;;;;30.08;18.48;;;;;;;;;;4990918;28;100077;-69
2021/12/22 07:42:40;;;;;;;30.38;19.08;;;;;;;;;;4987474;28;100299;-69
2021/12/22 07:45:07;;;;;;;39.40;20.17;;;;;;;;;;4988468;28;98942;-69
2021/12/22 07:47:33;;;;;;;38.78;20.70;;;;;;;;;;4983799;28;101645;-69
2021/12/22 07:50:00;;;;;;;42.78;21.23;;;;;;;;;;4990900;28;99987;-69
2021/12/22 07:52:27;;;;;;;41.08;21.30;;;;;;;;;;4986379;28;98709;-68
2021/12/22 07:54:54;;;;;;;32.88;20.10;;;;;;;;;;4990870;28;99156;-69
2021/12/22 07:57:21;;;;;;;37.72;21.17;;;;;;;;;;4991050;28;99182;-69
2021/12/22 07:59:47;;;;;;;38.97;19.88;;;;;;;;;;4997805;28;98691;-69
2021/12/22 08:02:14;;;;;;;35.45;19.98;;;;;;;;;;4991906;28;100827;-69
2021/12/22 08:04:43;;;;;;;34.65;20.33;;;;;;;;;;4985937;28;99467;-69
2021/12/22 08:07:09;;;;;;;36.20;20.75;;;;;;;;;;4997277;28;100693;-69
2021/12/22 08:09:36;;;;;;;37.67;20.30;;;;;;;;;;4989342;28;99764;-69
2021/12/22 08:12:05;;;;;;;40.75;21.25;;;;;;;;;;4971703;28;99695;-69
2021/12/22 08:14:32;;;;;;;38.53;21.23;;;;;;;;;;4978869;28;100699;-69
2021/12/22 08:16:59;;;;;;;37.67;19.75;;;;;;;;;;4967824;28;100364;-67
2021/12/22 08:19:25;;;;;;;36.55;19.75;;;;;;;;;;4983842;28;98716;-68
2021/12/22 08:21:52;;;;;;;34.63;19.27;;;;;;;;;;4975848;28;98690;-68
2021/12/22 08:24:18;;;;;;;36.00;20.88;;;;;;;;;;4979061;28;100172;-68
2021/12/22 08:26:44;;;;;;;41.13;21.08;;;;;;;;;;4977944;28;100390;-70
2021/12/22 08:29:11;;;;;;;32.08;18.88;;;;;;;;;;4993689;28;101363;-70
2021/12/22 08:31:37;;;;;;;31.15;19.30;;;;;;;;;;4984376;28;101277;-68
2021/12/22 08:34:05;;;;;;;52.80;20.67;;;;;;;;;;4983103;28;100624;-67
2021/12/22 08:39:34;;;;;;;44.00;19.30;;;;;;;;;;4936381;28;99726;-68
2021/12/22 08:42:01;;;;;;;36.83;20.83;;;;;;;;;;4984795;28;99681;-68
2021/12/22 08:44:27;;;;;;;33.25;20.55;;;;;;;;;;4993993;28;98531;-68
2021/12/22 08:46:55;;;;;;;30.35;19.52;;;;;;;;;;4999567;28;99441;-68
2021/12/22 08:49:22;;;;;;;32.83;20.77;;;;;;;;;;4993875;28;100464;-68
2021/12/22 08:51:49;;;;;;;33.45;20.13;;;;;;;;;;4988294;28;98732;-68
2021/12/22 08:54:15;;;;;;;34.97;19.40;;;;;;;;;;4989805;28;100959;-68
2021/12/22 08:56:42;;;;;;;39.67;20.30;;;;;;;;;;4990047;27;99481;-68
2021/12/22 08:59:09;;;;;;;31.95;18.73;;;;;;;;;;4990605;28;98650;-68
2021/12/22 09:01:36;;;;;;;32.20;20.40;;;;;;;;;;4985090;28;100503;-68
2021/12/22 09:04:05;;;;;;;31.70;19.17;;;;;;;;;;4996531;28;100257;-68
2021/12/22 09:06:31;;;;;;;30.42;18.88;;;;;;;;;;4988824;28;100088;-68
2021/12/22 09:08:58;;;;;;;32.95;19.30;;;;;;;;;;4978408;28;100609;-68
2021/12/22 09:11:25;;;;;;;39.67;19.92;;;;;;;;;;4985244;28;98507;-68
2021/12/22 09:13:52;;;;;;;40.65;20.35;;;;;;;;;;4980112;28;99916;-68
2021/12/22 09:16:18;;;;;;;33.65;18.58;;;;;;;;;;4982455;28;99974;-68
2021/12/22 09:18:45;;;;;;;37.45;20.00;;;;;;;;;;4989748;28;99358;-69
2021/12/22 09:21:12;;;;;;;33.33;17.15;;;;;;;;;;4997799;28;100994;-68
2021/12/22 09:23:38;;;;;;;37.47;20.00;;;;;;;;;;4989301;28;100517;-69
2021/12/22 09:26:05;;;;;;;33.08;20.17;;;;;;;;;;5001246;28;98737;-69
2021/12/22 09:28:32;;;;;;;34.05;20.15;;;;;;;;;;4989651;28;100336;-69
2021/12/22 09:30:58;;;;;;;29.48;19.38;;;;;;;;;;4989994;28;99007;-69
2021/12/22 09:33:25;;;;;;;30.42;17.20;;;;;;;;;;4992339;28;99967;-69
2021/12/22 09:35:53;;;;;;;28.50;19.98;;;;;;;;;;4978516;28;99483;-69
2021/12/22 09:38:19;;;;;;;31.73;20.27;;;;;;;;;;4973914;28;98648;-69
2021/12/22 09:40:48;;;;;;;30.45;18.73;;;;;;;;;;4996293;28;100363;-69
2021/12/22 09:43:17;;;;;;;30.17;20.00;;;;;;;;;;4977700;28;101064;-69
2021/12/22 09:45:49;;;;;;;36.85;20.00;;;;;;;;;;4993371;28;99192;-68
2021/12/22 09:50:50;;;;;;;31.40;19.23;;;;;;;;;;4984106;28;100313;-69
2021/12/22 09:53:20;;;;;;;36.53;19.35;;;;;;;;;;4986728;28;99229;-70
2021/12/22 09:55:47;;;;;;;38.03;21.25;;;;;;;;;;4996038;28;101557;-69
2021/12/22 09:58:14;;;;;;;31.23;18.48;;;;;;;;;;4977814;28;99024;-69
2021/12/22 10:00:41;;;;;;;39.60;19.33;;;;;;;;;;4982754;28;100320;-70
2021/12/22 10:03:08;;;;;;;24.48;15.80;;;;;;;;;;4981747;28;100644;-69
2021/12/22 10:05:35;;;;;;;40.92;20.92;;;;;;;;;;4978944;28;99100;-69
2021/12/22 10:08:05;;;;;;;37.28;20.25;;;;;;;;;;4990011;28;100562;-69
2021/12/22 10:10:32;;;;;;;33.28;19.83;;;;;;;;;;4998466;28;100358;-69
2021/12/22 10:13:06;;;;;;;43.70;19.63;;;;;;;;;;4993724;28;100421;-69
2021/12/22 10:15:34;;;;;;;35.63;20.75;;;;;;;;;;4987681;28;99598;-69
2021/12/22 10:18:12;;;;;;;35.55;20.92;;;;;;;;;;4990270;28;100845;-69
2021/12/22 10:20:39;;;;;;;37.45;20.00;;;;;;;;;;4993049;28;100480;-69
2021/12/22 10:23:20;;;;;;;38.65;20.92;;;;;;;;;;4991292;28;100313;-70
2021/12/22 10:26:06;;;;;;;31.77;19.95;;;;;;;;;;4984534;28;97803;-69
2021/12/22 10:28:52;;;;;;;37.63;21.17;;;;;;;;;;4994212;28;101120;-69
2021/12/22 10:31:21;;;;;;;38.78;18.92;;;;;;;;;;4993057;28;101491;-70
2021/12/22 10:33:47;;;;;;;33.35;19.77;;;;;;;;;;4970949;28;101005;-69
2021/12/22 10:36:14;;;;;;;30.80;18.63;;;;;;;;;;5000822;28;100515;-69
2021/12/22 10:38:47;;;;;;;32.70;18.85;;;;;;;;;;4990980;28;99255;-69
2021/12/22 10:41:13;;;;;;;32.03;19.27;;;;;;;;;;4976248;28;101565;-70
2021/12/22 10:43:41;;;;;;;36.17;19.63;;;;;;;;;;4979812;28;100674;-70
2021/12/22 10:46:13;;;;;;;31.58;18.88;;;;;;;;;;4974258;28;98594;-69
2021/12/22 10:51:26;;;;;;;35.65;18.55;;;;;;;;;;4977670;28;98583;-69
2021/12/22 10:53:53;;;;;;;32.40;17.60;;;;;;;;;;4972174;28;98613;-70
2021/12/22 10:56:22;;;;;;;26.67;17.10;;;;;;;;;;4979756;28;100123;-69
2021/12/22 10:58:58;;;;;;;29.23;17.63;;;;;;;;;;4976524;28;99337;-69
2021/12/22 11:01:24;;;;;;;27.05;16.20;;;;;;;;;;4976224;28;101405;-68
2021/12/22 11:04:00;;;;;;;32.53;18.25;;;;;;;;;;4985663;28;100758;-68
2021/12/22 11:06:29;;;;;;;22.90;16.35;;;;;;;;;;4972405;28;99411;-68
2021/12/22 11:09:01;;;;;;;29.05;16.67;;;;;;;;;;4978360;28;99422;-68
2021/12/22 11:11:36;;;;;;;24.80;16.75;;;;;;;;;;4988929;28;99280;-68
2021/12/22 11:14:14;;;;;;;25.42;16.42;;;;;;;;;;4984227;28;99810;-68
2021/12/22 11:17:06;;;;;;;27.02;16.52;;;;;;;;;;5005595;28;86674;-69
2021/12/22 11:19:35;;;;;;;28.02;16.15;;;;;;;;;;4998819;28;89169;-69
2021/12/22 11:22:15;;;;;;;32.42;17.08;;;;;;;;;;5007380;28;89601;-70
2021/12/22 11:24:46;;;;;;;27.25;16.60;;;;;;;;;;4993754;28;90254;-69
2021/12/22 11:27:14;;;;;;;29.23;17.42;;;;;;;;;;4991921;28;89057;-69
2021/12/22 11:29:42;;;;;;;20.15;14.63;;;;;;;;;;4999055;28;90816;-69
2021/12/22 11:32:09;;;;;;;21.30;14.80;;;;;;;;;;4992318;28;89046;-69
2021/12/22 11:34:36;;;;;;;21.10;14.98;;;;;;;;;;5002379;28;90189;-69
2021/12/22 11:37:04;;;;;;;26.50;16.20;;;;;;;;;;4991816;28;90377;-69
2021/12/22 11:39:31;;;;;;;29.45;14.32;;;;;;;;;;5005743;28;90292;-70
2021/12/22 11:41:59;;;;;;;23.33;15.48;;;;;;;;;;4994572;28;90483;-69
2021/12/22 11:44:26;;;;;;;21.27;14.90;;;;;;;;;;4996481;28;89148;-69
2021/12/22 11:46:54;;;;;;;25.50;14.45;;;;;;;;;;5008660;28;91304;-71
2021/12/22 11:49:21;;;;;;;22.77;14.20;;;;;;;;;;4994419;28;90248;-69
2021/12/22 11:51:48;;;;;;;23.95;13.50;;;;;;;;;;5002237;28;89494;-69
2021/12/22 11:54:15;;;;;;;20.52;15.15;;;;;;;;;;4998694;28;89010;-69
2021/12/22 11:56:43;;;;;;;17.33;13.50;;;;;;;;;;4997777;28;89878;-68
2021/12/22 11:59:25;;;;;;;28.33;14.93;;;;;;;;;;4995383;28;90772;-69
2021/12/22 12:02:10;;;;;;;20.70;14.57;;;;;;;;;;5002136;28;89133;-69
2021/12/22 12:04:36;;;;;;;19.20;13.18;;;;;;;;;;4991003;28;89059;-69
2021/12/22 12:07:03;;;;;;;18.30;12.93;;;;;;;;;;5013066;28;89059;-69
2021/12/22 12:09:29;;;;;;;21.15;13.65;;;;;;;;;;4995807;28;90191;-69
2021/12/22 12:11:57;;;;;;;21.05;14.57;;;;;;;;;;4992733;28;90260;-70
2021/12/22 12:23:19;;;;;;;32.78;15.25;;;;;;;;;;5000614;28;90324;-69
2021/12/22 12:25:46;;;;;;;21.85;15.63;;;;;;;;;;4991578;28;90574;-69
2021/12/22 12:28:16;;;;;;;25.65;14.57;;;;;;;;;;4986347;28;90088;-69
2021/12/22 12:30:44;;;;;;;23.85;14.85;;;;;;;;;;4980839;28;90873;-69
2021/12/22 12:33:28;;;;;;;32.58;14.48;;;;;;;;;;4981708;28;89933;-69
2021/12/22 12:35:56;;;;;;;24.05;14.30;;;;;;;;;;4981188;28;89820;-70
2021/12/22 12:38:43;;;;;;;25.88;14.98;;;;;;;;;;4985219;28;90401;-70
2021/12/22 12:41:17;;;;;;;19.92;14.43;;;;;;;;;;4980313;28;90650;-69
2021/12/22 12:43:52;;;;;;;23.40;15.43;;;;;;;;;;4990700;28;89136;-69
2021/12/22 12:46:18;;;;;;;20.27;14.98;;;;;;;;;;4989170;28;92026;-69
2021/12/22 12:48:46;;;;;;;28.83;15.50;;;;;;;;;;4982898;28;90034;-70
2021/12/22 12:51:15;;;;;;;24.48;17.05;;;;;;;;;;4986076;28;90671;-71
2021/12/22 12:53:43;;;;;;;31.90;16.85;;;;;;;;;;4978410;28;90987;-70
2021/12/22 12:56:10;;;;;;;28.67;17.80;;;;;;;;;;4991732;28;90037;-69
2021/12/22 12:58:55;;;;;;;27.55;16.50;;;;;;;;;;4991068;28;89373;-69
2021/12/22 13:02:00;;;;;;;23.95;16.08;;;;;;;;;;4981173;28;89320;-68
2021/12/22 13:04:41;;;;;;;23.92;16.17;;;;;;;;;;4924648;28;90138;-68
2021/12/22 13:07:09;;;;;;;27.80;16.63;;;;;;;;;;4932298;28;89503;-68
2021/12/22 13:09:36;;;;;;;26.77;16.70;;;;;;;;;;4967957;28;90586;-69
2021/12/22 13:17:23;;;;;;;25.65;17.33;;;;;;;;;;4985976;28;91016;-69
2021/12/22 13:19:53;;;;;;;24.83;17.27;;;;;;;;;;4977099;28;89788;-69
2021/12/22 13:22:20;;;;;;;35.67;18.17;;;;;;;;;;4976472;28;90363;-68
2021/12/22 13:25:05;;;;;;;27.20;17.30;;;;;;;;;;4977571;28;89949;-68
2021/12/22 13:27:31;;;;;;;26.50;17.05;;;;;;;;;;4976577;28;90653;-68
2021/12/22 13:30:11;;;;;;;25.92;16.77;;;;;;;;;;4983853;28;89045;-68
2021/12/22 13:32:54;;;;;;;24.77;17.02;;;;;;;;;;4986128;28;90555;-68
2021/12/22 13:35:20;;;;;;;;;;;;;;;;;;4977133;28;90255;-68
2021/12/22 13:37:50;;;;;;;25.05;17.08;;;;;;;;;;4977091;28;120432;-68
2021/12/22 13:40:36;;;;;;;30.63;17.40;;;;;;;;;;4975925;28;90097;-68
2021/12/22 13:43:02;;;;;;;30.30;16.10;;;;;;;;;;4981836;28;90496;-68
2021/12/22 13:45:29;;;;;;;25.75;16.08;;;;;;;;;;4976650;28;90188;-68
2021/12/22 13:47:56;;;;;;;29.33;17.15;;;;;;;;;;4982408;28;90764;-68
2021/12/22 13:50:22;;;;;;;31.08;16.33;;;;;;;;;;4982598;28;89246;-68
2021/12/22 13:52:49;;;;;;;26.33;17.65;;;;;;;;;;4979305;28;90927;-68
2021/12/22 13:55:15;;;;;;;25.63;16.83;;;;;;;;;;4976146;28;89007;-68
2021/12/22 13:57:42;;;;;;;23.67;17.13;;;;;;;;;;4975698;28;90876;-69
2021/12/22 14:00:08;;;;;;;27.38;18.35;;;;;;;;;;4984762;28;89701;-69
2021/12/22 14:02:35;;;;;;;22.73;18.20;;;;;;;;;;4986775;28;89130;-68
2021/12/22 14:05:12;;;;;;;30.52;17.25;;;;;;;;;;4982243;28;90386;-68
2021/12/22 14:07:38;;;;;;;24.02;17.20;;;;;;;;;;4977407;28;92120;-68
2021/12/22 14:10:09;;;;;;;26.90;18.23;;;;;;;;;;4984087;28;88997;-68
2021/12/22 14:12:37;;;;;;;29.40;17.80;;;;;;;;;;4975678;28;90184;-68
2021/12/22 14:15:03;;;;;;;29.02;17.88;;;;;;;;;;4978527;28;90283;-68
2021/12/22 14:17:38;;;;;;;23.60;17.20;;;;;;;;;;4975619;28;89939;-69
2021/12/22 14:20:09;;;;;;;23.70;17.20;;;;;;;;;;4976076;28;90631;-67
2021/12/22 14:22:36;;;;;;;24.92;16.90;;;;;;;;;;4975622;28;89582;-68
2021/12/22 14:25:05;;;;;;;21.42;16.67;;;;;;;;;;4976242;28;91200;-69
2021/12/22 14:27:42;;;;;;;30.25;17.45;;;;;;;;;;4975951;28;90377;-68
2021/12/22 14:30:08;;;;;;;26.67;17.98;;;;;;;;;;4976981;28;89119;-68
2021/12/22 14:32:36;;;;;;;28.05;19.02;;;;;;;;;;4980924;28;90856;-68
2021/12/22 14:35:11;;;;;;;24.52;19.05;;;;;;;;;;4975990;28;90603;-68
2021/12/22 14:37:39;;;;;;;25.50;17.58;;;;;;;;;;4981198;28;89021;-66
2021/12/22 14:40:19;;;;;;;29.48;17.92;;;;;;;;;;4975697;28;90184;-68
2021/12/22 14:43:01;;;;;;;25.67;16.45;;;;;;;;;;4978640;28;89462;-68
2021/12/22 14:45:33;;;;;;;26.13;17.15;;;;;;;;;;4978610;28;90671;-69
2021/12/22 14:48:35;;;;;;;26.02;15.95;;;;;;;;;;4988004;28;90828;-68
2021/12/22 14:51:06;;;;;;;27.23;16.38;;;;;;;;;;4950903;28;90090;-68
2021/12/22 14:53:46;;;;;;;19.30;15.13;;;;;;;;;;4973769;28;90792;-68
2021/12/22 14:56:18;;;;;;;25.02;15.77;;;;;;;;;;4987582;28;90314;-68